Hc Svea Kim — V2BB — position and weather

sailwx.info

Track history (hours):
 
Tides and Currents Weather Stations Pressure Air Temp Water Temp Dewpoint Dewpoint Depression Visibility Wind Speed Wind Dir Waves Ship Positions

Hc Svea Kim

Last reported at 2015-Mar-03 00:20 UTC. Time now 2015-Mar-04 04:24 UTC.
Position N 39°07' W 028°26'.

Length 129 m; draft 7.6 m.

Type: Cargo ship. MMSI: 304182000.

Date/timePositionNaut miles runAvg speedWind from/ knotsBaromVisibWave heightAir tempDewpointWater temp
2015-Mar-03 00:20N 39°07' W 028°26'7 8.5
2015-Mar-02 23:33N 39°05' W 028°34'8 8.1
2015-Mar-02 22:33N 39°03' W 028°44'8 7.6
2015-Mar-02 21:33N 38°59' W 028°53'7 7.4
2015-Mar-02 20:33N 38°57' W 029°02'7 7.4
2015-Mar-02 19:33N 38°54' W 029°11'8 8.0
2015-Mar-02 18:33N 38°52' W 029°20'9 8.9
2015-Mar-02 17:33N 38°49' W 029°31'10 9.8
2015-Mar-02 16:33N 38°46' W 029°43'1010.1
2015-Mar-02 15:34N 38°44' W 029°56'1111.3
2015-Mar-02 14:33N 38°39' W 030°09'1111.5
2015-Mar-02 13:33N 38°35' W 030°23'  
Track history (hours):
 
Tides and Currents Weather Stations Pressure Air Temp Water Temp Dewpoint Dewpoint Depression Visibility Wind Speed Wind Dir Waves Ship Positions

Hc Svea Kim

Last reported at 2015-Mar-03 00:20 UTC. Time now 2015-Mar-04 04:24 UTC.
Position N 39°07' W 028°26'.

Length 129 m; draft 7.6 m.

Type: Cargo ship. MMSI: 304182000.

Date/timePositionNaut miles runAvg speedWind from/ knotsBaromVisibWave heightAir tempDewpointWater temp
2015-Mar-03 00:20N 39°07' W 028°26'7 8.5
2015-Mar-02 23:33N 39°05' W 028°34'8 8.1
2015-Mar-02 22:33N 39°03' W 028°44'8 7.6
2015-Mar-02 21:33N 38°59' W 028°53'7 7.4
2015-Mar-02 20:33N 38°57' W 029°02'7 7.4
2015-Mar-02 19:33N 38°54' W 029°11'8 8.0
2015-Mar-02 18:33N 38°52' W 029°20'9 8.9
2015-Mar-02 17:33N 38°49' W 029°31'10 9.8
2015-Mar-02 16:33N 38°46' W 029°43'1010.1
2015-Mar-02 15:34N 38°44' W 029°56'1111.3
2015-Mar-02 14:33N 38°39' W 030°09'1111.5
2015-Mar-02 13:33N 38°35' W 030°23'  

Dump ship's entire track history